Time;durP1;ratioP1;P1;durP2;ratioP2;P2;SDS_P1;SDS_P2;PMS_P1;PMS_P2;Temp;Humidity;BMP_temperature;BMP_pressure;BME280_temperature;BME280_humidity;BME280_pressure;Samples;Min_cycle;Max_cycle;Signal;HPM_P1;HPM_P2
2023/08/22 00:01:42;;;;;;;0.10;0.10;;;;;;;26.58;58.91;101373.94;4917855;29;20027;-92
2023/08/22 00:04:08;;;;;;;0.20;0.20;;;;;;;26.37;59.25;101363.75;4902186;29;20031;-91
2023/08/22 00:06:33;;;;;;;0.10;0.10;;;;;;;26.43;59.32;101372.88;4917688;29;20036;-93
2023/08/22 00:08:59;;;;;;;0.20;0.20;;;;;;;26.47;59.24;101374.22;4901147;29;20032;-93
2023/08/22 00:11:24;;;;;;;0.20;0.20;;;;;;;26.38;59.56;101368.06;4902198;29;20031;-90
2023/08/22 00:13:50;;;;;;;0.10;0.10;;;;;;;26.29;59.94;101374.28;4901791;29;20043;-91
2023/08/22 00:16:15;;;;;;;0.20;0.20;;;;;;;26.11;60.32;101377.00;4901697;29;20034;-90
2023/08/22 00:18:41;;;;;;;0.20;0.20;;;;;;;25.96;60.72;101363.53;4901709;29;20039;-90
2023/08/22 00:21:06;;;;;;;0.10;0.10;;;;;;;26.00;60.74;101367.50;4917598;29;20398;-92
2023/08/22 00:23:32;;;;;;;0.20;0.20;;;;;;;26.00;60.57;101359.56;4901428;29;20043;-91
2023/08/22 00:25:57;;;;;;;0.13;0.13;;;;;;;26.08;60.53;101376.50;4901575;29;20027;-92
2023/08/22 00:28:22;;;;;;;0.20;0.20;;;;;;;25.86;60.71;101349.56;4901144;29;20031;-90
2023/08/22 00:30:48;;;;;;;0.20;0.20;;;;;;;25.91;60.86;101360.50;4885122;29;20070;-90
2023/08/22 00:33:13;;;;;;;0.20;0.20;;;;;;;26.05;60.73;101371.50;4917309;29;20024;-93
2023/08/22 00:35:39;;;;;;;0.10;0.10;;;;;;;25.90;61.29;101366.78;4901557;29;20056;-90
2023/08/22 00:38:04;;;;;;;0.10;0.10;;;;;;;25.92;60.88;101371.94;4901313;29;20091;-91
2023/08/22 00:40:30;;;;;;;0.20;0.20;;;;;;;25.94;61.17;101380.56;4901157;29;20068;-90
2023/08/22 00:42:55;;;;;;;0.10;0.10;;;;;;;25.78;61.32;101354.81;4917207;29;20047;-93
2023/08/22 00:45:21;;;;;;;0.10;0.10;;;;;;;25.90;61.25;101373.91;4901352;29;20099;-90
2023/08/22 00:47:46;;;;;;;0.20;0.20;;;;;;;25.84;61.38;101371.88;4901391;29;20039;-91
2023/08/22 00:50:12;;;;;;;0.20;0.20;;;;;;;25.93;61.25;101377.06;4901304;29;20039;-91
2023/08/22 00:52:37;;;;;;;0.20;0.20;;;;;;;25.93;60.91;101374.44;4901238;29;20031;-90
2023/08/22 00:55:03;;;;;;;0.15;0.15;;;;;;;25.87;61.25;101371.59;4901232;29;20055;-92
2023/08/22 00:57:28;;;;;;;0.20;0.20;;;;;;;25.83;61.59;101365.75;4901332;29;20082;-92
2023/08/22 00:59:54;;;;;;;0.10;0.10;;;;;;;25.95;60.92;101372.44;4917128;29;20028;-91
2023/08/22 01:02:21;;;;;;;0.10;0.10;;;;;;;25.87;61.17;101359.16;4885972;29;20118;-91
2023/08/22 01:04:46;;;;;;;0.20;0.20;;;;;;;25.86;61.55;101372.56;4885997;29;20087;-90
2023/08/22 01:07:18;;;;;;;0.20;0.20;;;;;;;25.78;62.05;101378.66;4916720;29;20035;-90
2023/08/22 01:10:05;;;;;;;0.20;0.20;;;;;;;25.75;61.66;101371.00;4901031;29;20114;-91
2023/08/22 01:12:42;;;;;;;0.10;0.10;;;;;;;25.83;62.07;101384.31;4886250;29;20414;-92
2023/08/22 01:15:28;;;;;;;0.20;0.20;;;;;;;25.84;62.09;101380.66;4901693;29;21162;-92
2023/08/22 01:17:55;;;;;;;0.10;0.10;;;;;;;25.80;61.39;101374.03;4916948;29;20063;-92
2023/08/22 01:20:21;;;;;;;0.20;0.20;;;;;;;25.86;60.97;101368.09;4917157;29;20039;-92
2023/08/22 01:22:46;;;;;;;0.10;0.10;;;;;;;25.75;61.24;101365.69;4888266;29;20032;-91
2023/08/22 01:25:11;;;;;;;0.10;0.10;;;;;;;25.73;61.86;101378.28;4904751;29;20036;-92
2023/08/22 01:27:46;;;;;;;0.20;0.20;;;;;;;25.67;61.73;101369.13;4905151;29;20042;-91
2023/08/22 01:30:23;;;;;;;0.17;0.17;;;;;;;25.68;61.52;101370.78;4904689;29;20577;-91
2023/08/22 01:32:49;;;;;;;0.15;0.15;;;;;;;25.71;61.67;101370.47;4888954;29;20059;-90
2023/08/22 01:35:14;;;;;;;0.20;0.20;;;;;;;25.73;61.09;101378.28;4936429;29;20039;-93
2023/08/22 01:37:40;;;;;;;0.20;0.20;;;;;;;25.64;61.36;101377.34;4920222;29;20043;-93
2023/08/22 01:40:06;;;;;;;0.10;0.10;;;;;;;25.63;61.57;101366.91;4936039;29;20032;-91
2023/08/22 01:42:31;;;;;;;0.13;0.13;;;;;;;25.69;61.47;101382.19;4904463;29;20032;-90
2023/08/22 01:44:57;;;;;;;0.10;0.10;;;;;;;25.59;61.83;101379.66;4904618;29;20036;-91
2023/08/22 01:47:22;;;;;;;0.20;0.20;;;;;;;25.61;61.66;101379.50;4920194;29;20031;-91
2023/08/22 01:49:48;;;;;;;0.20;0.20;;;;;;;25.53;62.21;101382.06;4920115;29;20039;-92
2023/08/22 01:52:13;;;;;;;0.20;0.20;;;;;;;25.40;62.52;101375.34;4904100;29;20107;-91
2023/08/22 01:54:39;;;;;;;0.10;0.10;;;;;;;25.48;62.17;101379.06;4919786;29;20036;-90
2023/08/22 01:57:04;;;;;;;0.10;0.10;;;;;;;25.44;62.57;101371.41;4920064;29;20028;-90
2023/08/22 01:59:30;;;;;;;0.10;0.10;;;;;;;25.36;62.65;101371.34;4920060;29;20085;-91
2023/08/22 02:01:55;;;;;;;0.20;0.20;;;;;;;25.27;63.01;101372.28;4904189;29;20541;-92
2023/08/22 02:04:21;;;;;;;0.20;0.20;;;;;;;25.37;62.57;101377.50;4919969;29;20031;-91
2023/08/22 02:06:46;;;;;;;0.10;0.10;;;;;;;25.22;62.71;101379.84;4903994;29;20036;-93
2023/08/22 02:09:13;;;;;;;0.10;0.10;;;;;;;25.23;63.17;101376.19;4904157;29;20028;-91
2023/08/22 02:11:39;;;;;;;0.10;0.10;;;;;;;25.01;63.49;101368.69;4919881;29;20028;-91
2023/08/22 02:14:04;;;;;;;0.10;0.10;;;;;;;25.09;63.91;101387.34;4919562;29;20032;-90
2023/08/22 02:16:29;;;;;;;0.10;0.10;;;;;;;25.00;63.65;101373.16;4903692;29;20028;-91
2023/08/22 02:18:55;;;;;;;0.20;0.20;;;;;;;24.99;63.84;101379.44;4919735;29;20039;-90
2023/08/22 02:21:20;;;;;;;0.10;0.10;;;;;;;25.00;63.59;101380.25;4903527;29;20487;-92
2023/08/22 02:23:46;;;;;;;0.10;0.10;;;;;;;25.00;64.16;101386.38;4904038;29;20036;-89
2023/08/22 02:26:11;;;;;;;0.10;0.10;;;;;;;24.91;64.30;101375.88;4919702;29;20035;-93
2023/08/22 02:28:37;;;;;;;0.10;0.10;;;;;;;24.81;64.19;101355.59;4903213;29;20031;-92
2023/08/22 02:31:02;;;;;;;0.20;0.20;;;;;;;24.99;64.13;101387.38;4903470;29;20049;-91
2023/08/22 02:33:28;;;;;;;0.20;0.20;;;;;;;24.97;64.02;101376.09;4887221;29;20032;-91
2023/08/22 02:35:54;;;;;;;0.20;0.20;;;;;;;25.03;64.18;101382.63;4893250;29;20027;-91
2023/08/22 02:38:19;;;;;;;0.10;0.10;;;;;;;24.97;64.18;101380.53;4906849;29;20046;-90
2023/08/22 02:40:45;;;;;;;0.10;0.10;;;;;;;24.94;64.43;101386.16;4906604;29;20035;-92
2023/08/22 02:43:10;;;;;;;0.20;0.20;;;;;;;24.89;64.59;101392.72;4906699;29;20089;-90
2023/08/22 02:45:37;;;;;;;0.20;0.20;;;;;;;24.79;64.64;101393.78;4906564;29;20035;-90
2023/08/22 02:48:03;;;;;;;0.10;0.10;;;;;;;24.80;65.06;101398.91;4922566;29;20118;-91
2023/08/22 02:50:28;;;;;;;0.13;0.13;;;;;;;24.89;64.79;101399.84;4906422;29;20074;-91
2023/08/22 02:52:54;;;;;;;0.20;0.20;;;;;;;24.86;64.62;101400.94;4922609;29;20031;-92
2023/08/22 02:55:19;;;;;;;0.10;0.10;;;;;;;24.92;64.22;101390.75;4906556;29;20038;-91
2023/08/22 02:57:45;;;;;;;0.10;0.10;;;;;;;24.85;64.20;101388.69;4906621;29;20043;-92
2023/08/22 03:00:11;;;;;;;0.10;0.10;;;;;;;25.00;64.09;101401.44;4906312;29;20465;-91
2023/08/22 03:02:37;;;;;;;0.10;0.10;;;;;;;24.95;64.36;101396.56;4905889;29;20030;-92
2023/08/22 03:05:11;;;;;;;0.10;0.10;;;;;;;24.85;64.17;101388.69;4906002;29;20035;-89
2023/08/22 03:07:36;;;;;;;0.20;0.20;;;;;;;24.88;64.59;101408.78;4906685;29;20023;-89
2023/08/22 03:10:02;;;;;;;0.10;0.10;;;;;;;24.93;64.47;101408.31;4921141;29;20425;-88
2023/08/22 03:12:28;;;;;;;0.20;0.20;;;;;;;24.98;64.17;101419.28;4921096;29;20023;-90
2023/08/22 03:14:53;;;;;;;0.20;0.20;;;;;;;24.85;64.35;101407.22;4905419;29;20027;-89
2023/08/22 03:17:19;;;;;;;0.20;0.20;;;;;;;24.93;64.36;101409.13;4905264;29;20397;-87
2023/08/22 03:19:44;;;;;;;0.10;0.10;;;;;;;24.98;64.02;101400.75;4904507;29;20497;-88
2023/08/22 03:22:10;;;;;;;0.10;0.10;;;;;;;24.97;64.20;101412.31;4920825;29;20034;-88
2023/08/22 03:24:35;;;;;;;0.20;0.20;;;;;;;24.82;64.55;101410.19;4920629;29;20050;-88
2023/08/22 03:27:00;;;;;;;0.13;0.13;;;;;;;24.75;64.82;101419.69;4920623;29;20027;-88
2023/08/22 03:29:26;;;;;;;0.20;0.20;;;;;;;24.72;65.56;101417.34;4904873;29;20588;-91
2023/08/22 03:31:51;;;;;;;0.20;0.20;;;;;;;24.79;65.02;101417.59;4904995;29;20413;-89
2023/08/22 03:34:17;;;;;;;0.20;0.20;;;;;;;24.84;64.88;101420.63;4904703;29;20401;-90
2023/08/22 03:36:42;;;;;;;0.20;0.20;;;;;;;24.76;64.96;101418.69;4904692;29;20086;-89
2023/08/22 03:39:08;;;;;;;0.20;0.20;;;;;;;24.68;65.17;101410.69;4920575;29;20027;-88
2023/08/22 03:41:35;;;;;;;0.20;0.20;;;;;;;24.82;64.93;101430.53;4902771;29;20051;-89
2023/08/22 03:44:00;;;;;;;0.10;0.10;;;;;;;24.81;64.77;101426.22;4885141;29;20290;-89
2023/08/22 03:46:26;;;;;;;0.10;0.10;;;;;;;24.76;64.98;101424.00;4904154;29;20035;-88
2023/08/22 03:48:51;;;;;;;0.20;0.20;;;;;;;24.85;64.38;101432.88;4888562;29;20039;-91
2023/08/22 03:58:09;;;;;;;0.17;0.17;;;;;;;24.76;64.33;101426.63;4936048;29;20104;-89
2023/08/22 04:00:35;;;;;;;0.57;0.20;;;;;;;24.58;64.69;101423.09;4885487;29;20031;-87
2023/08/22 04:03:00;;;;;;;0.10;0.10;;;;;;;24.71;64.78;101436.84;4901218;29;20027;-89
2023/08/22 04:05:26;;;;;;;0.10;0.10;;;;;;;24.58;64.57;101417.81;4885363;29;20058;-89
2023/08/22 04:07:51;;;;;;;0.20;0.20;;;;;;;24.66;65.73;101441.72;4916596;29;20475;-89
2023/08/22 04:10:17;;;;;;;0.20;0.20;;;;;;;24.58;65.75;101445.13;4900524;29;20110;-88
2023/08/22 04:12:43;;;;;;;0.10;0.10;;;;;;;24.64;65.16;101443.69;4900603;29;20026;-90
2023/08/22 04:15:11;;;;;;;0.20;0.20;;;;;;;24.59;65.04;101438.03;4903909;28;20036;-91
2023/08/22 04:17:41;;;;;;;0.20;0.20;;;;;;;24.61;65.34;101449.28;4909239;29;20164;-89
2023/08/22 04:20:08;;;;;;;0.20;0.20;;;;;;;24.63;65.12;101434.09;4886306;29;20493;-88
2023/08/22 04:22:34;;;;;;;0.20;0.20;;;;;;;24.62;64.97;101445.66;4913604;28;20035;-86
2023/08/22 04:24:59;;;;;;;0.10;0.10;;;;;;;24.59;64.84;101440.69;4919819;28;20039;-91
2023/08/22 04:27:25;;;;;;;0.10;0.10;;;;;;;24.64;65.06;101443.69;4915963;28;21231;-87
2023/08/22 04:29:50;;;;;;;0.20;0.20;;;;;;;24.47;65.18;101428.59;4919510;28;20501;-90
2023/08/22 04:32:16;;;;;;;0.10;0.10;;;;;;;24.56;65.23;101451.53;4927439;29;20047;-92
2023/08/22 04:34:41;;;;;;;0.20;0.20;;;;;;;24.57;65.89;101443.44;4906887;28;20033;-90
2023/08/22 04:37:07;;;;;;;0.10;0.10;;;;;;;24.13;66.89;101454.72;4900778;29;20034;-91
2023/08/22 04:39:32;;;;;;;0.10;0.10;;;;;;;23.83;68.14;101453.09;4902266;29;20067;-87
2023/08/22 04:41:58;;;;;;;0.10;0.10;;;;;;;23.80;68.52;101467.44;4911082;28;20067;-92
2023/08/22 04:44:23;;;;;;;0.20;0.20;;;;;;;23.73;68.63;101447.81;4919546;29;20386;-85
2023/08/22 04:46:48;;;;;;;0.15;0.15;;;;;;;23.98;68.00;101463.06;4914235;29;20434;-92
2023/08/22 04:49:14;;;;;;;0.13;0.13;;;;;;;23.73;69.02;101463.69;4916345;29;20044;-88
2023/08/22 04:51:39;;;;;;;0.10;0.10;;;;;;;23.76;68.95;101468.66;4896325;29;20027;-84
2023/08/22 04:54:05;;;;;;;0.10;0.10;;;;;;;23.89;68.38;101447.22;4919053;29;20058;-88
2023/08/22 04:56:30;;;;;;;0.20;0.20;;;;;;;23.94;68.62;101471.44;4922325;29;20046;-90
2023/08/22 04:58:56;;;;;;;0.10;0.10;;;;;;;23.98;68.39;101462.25;4919206;29;20099;-89
2023/08/22 05:01:21;;;;;;;0.10;0.10;;;;;;;24.25;67.65;101487.94;4920007;29;20044;-89
2023/08/22 05:03:47;;;;;;;0.10;0.10;;;;;;;24.24;65.40;101454.53;4917472;29;20035;-89
2023/08/22 05:06:12;;;;;;;0.20;0.20;;;;;;;24.58;65.62;101474.22;4932667;28;20057;-93
2023/08/22 05:08:38;;;;;;;0.10;0.10;;;;;;;24.77;65.92;101470.63;4923632;29;20035;-91
2023/08/22 05:11:03;;;;;;;0.13;0.13;;;;;;;24.99;64.92;101479.19;4956969;28;20031;-90
2023/08/22 05:13:29;;;;;;;0.20;0.20;;;;;;;25.13;64.34;101484.00;4922789;28;20098;-90
2023/08/22 05:15:54;;;;;;;0.20;0.20;;;;;;;25.19;64.96;101474.63;4940530;28;20027;-92
2023/08/22 05:18:19;;;;;;;0.13;0.13;;;;;;;25.37;64.18;101460.44;4964622;28;20484;-86
2023/08/22 05:20:45;;;;;;;0.10;0.10;;;;;;;25.48;64.02;101477.91;4944521;28;20033;-91
2023/08/22 05:23:10;;;;;;;0.10;0.10;;;;;;;25.43;63.82;101459.81;4912640;29;20026;-91
2023/08/22 05:25:39;;;;;;;0.20;0.20;;;;;;;25.67;64.80;101480.41;4930363;28;20502;-92
2023/08/22 05:28:05;;;;;;;0.20;0.20;;;;;;;25.65;63.19;101470.91;4927097;29;20031;-89
2023/08/22 05:30:30;;;;;;;0.10;0.10;;;;;;;25.80;63.86;101485.34;4904745;29;20112;-88
2023/08/22 05:32:55;;;;;;;0.20;0.20;;;;;;;25.87;62.34;101465.19;4917960;28;20038;-91
2023/08/22 05:35:21;;;;;;;0.20;0.20;;;;;;;26.05;62.19;101483.69;4952870;29;20514;-91
2023/08/22 05:37:46;;;;;;;0.20;0.20;;;;;;;26.19;61.47;101485.78;4931168;28;20414;-92
2023/08/22 05:40:13;;;;;;;0.20;0.20;;;;;;;26.15;61.75;101471.16;4925314;28;20031;-90
2023/08/22 05:42:38;;;;;;;0.20;0.20;;;;;;;26.25;61.28;101486.97;4957073;28;20062;-91
2023/08/22 05:45:04;;;;;;;0.20;0.20;;;;;;;26.30;62.17;101488.19;4915384;28;20055;-92
2023/08/22 05:47:30;;;;;;;0.20;0.20;;;;;;;26.37;62.66;101488.44;4910131;29;20067;-88
2023/08/22 05:49:55;;;;;;;0.20;0.20;;;;;;;26.44;60.85;101486.78;4927230;29;20046;-91
2023/08/22 05:52:22;;;;;;;0.20;0.20;;;;;;;26.39;62.31;101486.44;4924029;29;20083;-92
2023/08/22 05:54:48;;;;;;;0.20;0.20;;;;;;;26.49;62.21;101488.97;4916309;29;20031;-92
2023/08/22 05:57:13;;;;;;;0.20;0.20;;;;;;;26.53;61.64;101483.19;4918474;29;20102;-87
2023/08/22 05:59:39;;;;;;;0.20;0.20;;;;;;;26.68;61.80;101490.56;4946002;29;20047;-92
2023/08/22 06:02:04;;;;;;;0.20;0.20;;;;;;;26.73;60.74;101493.56;4924689;29;20062;-92
2023/08/22 06:04:30;;;;;;;0.20;0.20;;;;;;;26.75;61.12;101496.91;4938877;29;20077;-91
2023/08/22 06:06:55;;;;;;;0.20;0.20;;;;;;;26.97;62.05;101488.34;4941825;29;20501;-92
2023/08/22 06:09:21;;;;;;;0.20;0.20;;;;;;;27.11;61.04;101497.56;4906200;29;20426;-90
2023/08/22 06:11:46;;;;;;;0.20;0.20;;;;;;;27.10;59.41;101483.44;4904917;29;20103;-93
2023/08/22 06:14:12;;;;;;;0.10;0.10;;;;;;;27.18;59.28;101490.59;4937596;29;20042;-91
2023/08/22 06:16:37;;;;;;;0.20;0.20;;;;;;;27.19;61.02;101496.75;4920668;29;20121;-93
2023/08/22 06:19:03;;;;;;;0.10;0.10;;;;;;;27.13;58.27;101491.06;4956850;29;20046;-91
2023/08/22 06:21:28;;;;;;;0.20;0.20;;;;;;;27.23;59.37;101495.41;4909119;29;20046;-91
2023/08/22 06:23:53;;;;;;;0.20;0.20;;;;;;;27.34;58.93;101484.50;4954726;29;20031;-94
2023/08/22 06:26:19;;;;;;;0.10;0.10;;;;;;;27.53;57.37;101492.16;4937949;28;20395;-92
2023/08/22 06:28:46;;;;;;;0.20;0.20;;;;;;;27.07;57.59;101494.41;4921108;29;20086;-93
2023/08/22 06:31:11;;;;;;;0.20;0.20;;;;;;;26.74;58.00;101496.06;4928649;28;20038;-93
2023/08/22 06:33:37;;;;;;;0.20;0.20;;;;;;;26.62;58.60;101491.19;4938525;28;20032;-91
2023/08/22 06:36:02;;;;;;;0.20;0.20;;;;;;;26.81;58.15;101502.41;4937233;28;20028;-89
2023/08/22 06:38:28;;;;;;;0.20;0.20;;;;;;;26.58;58.78;101496.81;4921829;28;20042;-91
2023/08/22 06:40:53;;;;;;;0.20;0.20;;;;;;;26.58;58.13;101493.34;4905338;28;20031;-93
2023/08/22 06:43:19;;;;;;;0.20;0.20;;;;;;;26.87;57.18;101496.47;4937964;28;20039;-92
2023/08/22 06:45:48;;;;;;;0.20;0.20;;;;;;;26.95;57.72;101503.63;4929595;28;20051;-93
2023/08/22 06:48:13;;;;;;;0.20;0.20;;;;;;;26.93;57.83;101507.41;4914195;29;20494;-88
2023/08/22 06:50:44;;;;;;;0.20;0.20;;;;;;;27.19;56.93;101505.53;4905423;29;20047;-93
2023/08/22 06:53:10;;;;;;;0.20;0.20;;;;;;;26.93;56.91;101465.75;4902314;28;20117;-88
2023/08/22 06:55:35;;;;;;;0.20;0.20;;;;;;;27.05;56.47;101488.44;4939861;28;20433;-89
2023/08/22 06:58:01;;;;;;;0.20;0.20;;;;;;;27.23;56.04;101495.41;4937450;28;20143;-91
2023/08/22 07:00:26;;;;;;;0.20;0.20;;;;;;;27.47;55.84;101498.13;4938896;28;20079;-93
2023/08/22 07:02:52;;;;;;;0.20;0.20;;;;;;;27.40;55.92;101503.25;4920988;29;20075;-92
2023/08/22 07:05:17;;;;;;;0.20;0.20;;;;;;;27.24;56.23;101462.56;4938502;29;20020;-90
2023/08/22 07:07:43;;;;;;;0.20;0.20;;;;;;;27.74;55.97;101506.84;4917513;29;20035;-90
2023/08/22 07:10:09;;;;;;;0.20;0.20;;;;;;;27.85;55.34;101502.00;4910832;28;20034;-92
2023/08/22 07:12:35;;;;;;;0.20;0.20;;;;;;;27.78;55.59;101495.69;4925525;28;20046;-90
2023/08/22 07:15:01;;;;;;;0.20;0.20;;;;;;;27.88;54.96;101496.34;4939116;28;20058;-91
2023/08/22 07:17:26;;;;;;;0.20;0.20;;;;;;;28.26;54.50;101505.44;4951311;28;20102;-89
2023/08/22 07:19:57;;;;;;;0.20;0.20;;;;;;;28.13;54.22;101499.00;4904540;29;20047;-93
2023/08/22 07:22:22;;;;;;;0.20;0.20;;;;;;;28.07;54.66;101495.16;4931598;28;20027;-90
2023/08/22 07:24:49;;;;;;;0.20;0.20;;;;;;;28.31;53.58;101496.16;4944589;28;20027;-91
2023/08/22 07:27:17;;;;;;;0.20;0.20;;;;;;;28.57;52.61;101496.75;4937606;28;20023;-92
2023/08/22 07:29:43;;;;;;;0.20;0.20;;;;;;;28.52;51.82;101504.44;4911586;29;20488;-91
2023/08/22 07:32:09;;;;;;;0.22;0.22;;;;;;;28.66;51.16;101506.38;4921987;29;20437;-89
2023/08/22 07:34:34;;;;;;;0.20;0.20;;;;;;;28.72;51.49;101502.19;4919917;29;20039;-93
2023/08/22 07:37:00;;;;;;;0.20;0.20;;;;;;;28.79;51.29;101506.63;4890905;29;20043;-91
2023/08/22 07:39:27;;;;;;;0.20;0.20;;;;;;;28.97;49.66;101492.28;4905456;29;20049;-88
2023/08/22 07:41:52;;;;;;;0.20;0.20;;;;;;;28.95;50.10;101508.44;4918261;29;20031;-90
2023/08/22 07:44:18;;;;;;;0.20;0.20;;;;;;;28.79;50.02;101511.97;4906065;29;20038;-89
2023/08/22 07:46:43;;;;;;;0.20;0.20;;;;;;;28.88;50.35;101496.78;4921771;29;20437;-91
2023/08/22 07:49:09;;;;;;;0.20;0.20;;;;;;;29.23;49.73;101495.47;4911785;29;20062;-93
2023/08/22 07:51:36;;;;;;;0.20;0.20;;;;;;;29.33;49.85;101501.41;4905363;29;20031;-94
2023/08/22 07:54:04;;;;;;;0.20;0.20;;;;;;;29.58;48.12;101503.91;4891168;28;20051;-92
2023/08/22 07:56:30;;;;;;;0.20;0.20;;;;;;;29.60;48.28;101501.91;4944123;28;20042;-94
2023/08/22 07:58:55;;;;;;;0.20;0.20;;;;;;;29.43;47.71;101482.50;4943977;29;20067;-89
2023/08/22 08:01:21;;;;;;;0.20;0.20;;;;;;;29.51;47.88;101500.31;4937050;29;20038;-91
2023/08/22 08:03:46;;;;;;;0.20;0.20;;;;;;;29.76;46.72;101499.09;4911530;29;20072;-90
2023/08/22 08:06:11;;;;;;;0.20;0.20;;;;;;;29.85;45.98;101499.88;4900841;29;20036;-91
2023/08/22 08:08:37;;;;;;;0.20;0.20;;;;;;;29.82;46.59;101500.22;4889864;29;20036;-88
2023/08/22 08:11:02;;;;;;;0.20;0.20;;;;;;;29.83;46.92;101492.03;4900914;29;20036;-91
2023/08/22 08:13:28;;;;;;;0.20;0.20;;;;;;;30.02;45.97;101493.38;4922516;29;20477;-91
2023/08/22 08:15:53;;;;;;;0.20;0.20;;;;;;;30.24;46.02;101491.69;4918933;29;20058;-88
2023/08/22 08:18:19;;;;;;;0.20;0.20;;;;;;;30.06;46.79;101488.50;4946886;29;20036;-94
2023/08/22 08:20:44;;;;;;;0.20;0.20;;;;;;;30.16;47.36;101499.75;4933038;29;20037;-88
2023/08/22 08:23:10;;;;;;;0.20;0.20;;;;;;;30.51;46.81;101491.03;4928561;29;20031;-88
2023/08/22 08:25:36;;;;;;;0.20;0.20;;;;;;;30.53;46.03;101480.19;4909234;28;20042;-90
2023/08/22 08:28:05;;;;;;;0.20;0.20;;;;;;;30.60;45.88;101485.63;4948975;28;20027;-92
2023/08/22 08:30:31;;;;;;;0.20;0.20;;;;;;;30.69;45.78;101485.34;4939675;28;20050;-89
2023/08/22 08:32:56;;;;;;;0.20;0.20;;;;;;;30.97;44.82;101493.47;4904445;29;20031;-89
2023/08/22 08:35:22;;;;;;;0.20;0.20;;;;;;;30.83;44.13;101481.81;4922801;29;20035;-89
2023/08/22 08:37:48;;;;;;;0.20;0.20;;;;;;;30.66;44.65;101485.72;4932918;28;20058;-89
2023/08/22 08:40:14;;;;;;;0.20;0.20;;;;;;;30.68;45.36;101478.38;4935282;29;20027;-90
2023/08/22 08:42:40;;;;;;;0.20;0.20;;;;;;;30.86;45.20;101491.28;4934953;29;20512;-85
2023/08/22 08:45:06;;;;;;;0.20;0.20;;;;;;;30.88;45.26;101483.94;4899612;29;20418;-88
2023/08/22 08:47:35;;;;;;;0.20;0.20;;;;;;;30.99;44.17;101494.16;4900007;29;20019;-87
2023/08/22 08:50:01;;;;;;;0.20;0.20;;;;;;;31.13;44.83;101487.91;4903300;29;20058;-91
2023/08/22 08:52:26;;;;;;;0.20;0.20;;;;;;;31.31;44.01;101494.72;4919313;29;20468;-89
2023/08/22 08:54:53;;;;;;;0.20;0.20;;;;;;;31.39;43.76;101489.25;4910997;29;20043;-84
2023/08/22 08:57:18;;;;;;;0.20;0.20;;;;;;;31.32;43.87;101483.00;4928550;28;20492;-87
2023/08/22 08:59:44;;;;;;;0.20;0.20;;;;;;;31.42;43.49;101488.84;4920813;29;20114;-87
2023/08/22 09:02:13;;;;;;;0.20;0.20;;;;;;;31.46;43.20;101495.47;4923740;28;20042;-87
2023/08/22 09:04:39;;;;;;;0.20;0.20;;;;;;;31.72;42.49;101497.56;4925404;29;20077;-88
2023/08/22 09:07:06;;;;;;;0.30;0.30;;;;;;;31.63;42.74;101496.88;4917326;28;20625;-90
2023/08/22 09:09:35;;;;;;;0.20;0.20;;;;;;;31.51;42.62;101484.22;4906505;29;20061;-88
2023/08/22 09:12:06;;;;;;;0.20;0.20;;;;;;;31.79;43.36;101482.44;4911639;29;20071;-87
2023/08/22 09:14:39;;;;;;;0.20;0.20;;;;;;;32.01;41.18;101483.22;4916634;29;20562;-94
2023/08/22 09:17:05;;;;;;;0.20;0.20;;;;;;;31.86;41.87;101479.81;4893378;29;20111;-90
2023/08/22 09:19:32;;;;;;;0.30;0.30;;;;;;;31.92;40.95;101477.16;4923128;29;20036;-89
2023/08/22 09:21:58;;;;;;;0.20;0.20;;;;;;;31.80;41.78;101484.09;4899314;29;20509;-89
2023/08/22 09:24:24;;;;;;;0.20;0.20;;;;;;;32.09;42.05;101466.19;4899246;29;20415;-88
2023/08/22 09:26:50;;;;;;;0.20;0.20;;;;;;;32.33;41.06;101467.56;4899916;29;20032;-93
2023/08/22 09:29:29;;;;;;;0.20;0.20;;;;;;;32.41;41.27;101459.38;4915938;29;20425;-87
2023/08/22 09:32:01;;;;;;;0.20;0.20;;;;;;;32.68;41.39;101466.50;4938278;29;20127;-91
2023/08/22 09:34:27;;;;;;;0.20;0.20;;;;;;;32.78;40.12;101455.41;4933567;29;20035;-89
2023/08/22 09:36:54;;;;;;;0.20;0.20;;;;;;;32.81;39.83;101461.19;4909714;28;20035;-85
2023/08/22 09:39:19;;;;;;;0.20;0.20;;;;;;;32.85;39.64;101440.22;4918720;29;20035;-85
2023/08/22 09:41:45;;;;;;;0.20;0.20;;;;;;;33.18;39.63;101444.81;4913657;29;20040;-91
2023/08/22 09:44:11;;;;;;;0.30;0.30;;;;;;;33.34;39.85;101453.31;4924916;29;20486;-87
2023/08/22 09:46:42;;;;;;;0.28;0.28;;;;;;;33.60;38.01;101449.00;4921349;29;20034;-85
2023/08/22 09:49:11;;;;;;;0.22;0.22;;;;;;;33.75;37.96;101448.81;4915618;29;20042;-87
2023/08/22 09:51:37;;;;;;;0.30;0.30;;;;;;;33.92;37.56;101441.97;4919049;29;20041;-86
2023/08/22 09:54:03;;;;;;;0.30;0.30;;;;;;;34.01;37.54;101434.53;4931828;29;20113;-89
2023/08/22 09:56:29;;;;;;;0.30;0.30;;;;;;;34.15;37.52;101436.97;4916384;29;20109;-89
2023/08/22 09:58:55;;;;;;;0.30;0.30;;;;;;;34.14;36.33;101442.56;4938806;29;20458;-88
2023/08/22 10:01:20;;;;;;;0.30;0.30;;;;;;;34.35;36.26;101444.97;4921000;29;20023;-87
2023/08/22 10:03:46;;;;;;;0.30;0.30;;;;;;;34.27;36.04;101439.84;4891989;29;20151;-88
2023/08/22 10:06:13;;;;;;;0.30;0.30;;;;;;;34.31;36.14;101445.59;4902700;29;20114;-90
2023/08/22 10:08:42;;;;;;;0.30;0.30;;;;;;;34.23;36.06;101441.31;4935214;29;20039;-89
2023/08/22 10:11:08;;;;;;;0.30;0.30;;;;;;;34.40;36.49;101431.75;4907991;29;20031;-90
2023/08/22 10:13:34;;;;;;;0.30;0.30;;;;;;;34.38;36.25;101425.78;4900835;29;20040;-88
2023/08/22 10:15:59;;;;;;;0.30;0.30;;;;;;;34.40;36.41;101429.06;4934611;29;20031;-92
2023/08/22 10:18:25;;;;;;;0.30;0.30;;;;;;;34.82;36.51;101434.88;4923718;29;20054;-91
2023/08/22 10:20:54;;;;;;;0.30;0.30;;;;;;;34.84;35.44;101431.97;4937946;29;20039;-90
2023/08/22 10:23:52;;;;;;;0.30;0.30;;;;;;;35.03;35.61;101437.25;4923121;29;20038;-90
2023/08/22 10:26:21;;;;;;;0.30;0.30;;;;;;;34.84;34.96;101422.03;4941456;28;20058;-88
2023/08/22 10:29:13;;;;;;;0.30;0.30;;;;;;;34.89;34.93;101430.28;4918367;29;20039;-92
2023/08/22 10:32:01;;;;;;;0.30;0.30;;;;;;;35.03;34.36;101431.88;4929854;29;20047;-89
2023/08/22 10:34:38;;;;;;;0.30;0.30;;;;;;;34.93;34.95;101426.16;4948671;28;20031;-87
2023/08/22 10:37:20;;;;;;;0.30;0.30;;;;;;;35.08;34.99;101421.28;4947437;29;20027;-90
2023/08/22 10:39:50;;;;;;;0.30;0.30;;;;;;;35.14;34.58;101421.47;4922821;29;20601;-91
2023/08/22 10:42:19;;;;;;;0.30;0.30;;;;;;;35.33;34.83;101415.94;4898838;29;20484;-92
2023/08/22 10:44:49;;;;;;;0.30;0.30;;;;;;;35.44;33.88;101419.78;4905613;29;20031;-87
2023/08/22 10:47:16;;;;;;;0.30;0.30;;;;;;;35.66;33.59;101414.00;4921578;29;20031;-88
2023/08/22 10:49:42;;;;;;;0.30;0.30;;;;;;;35.77;33.67;101418.66;4920790;29;20042;-88
2023/08/22 10:52:11;;;;;;;0.30;0.30;;;;;;;35.97;33.32;101416.59;4937323;28;20417;-87
2023/08/22 10:55:01;;;;;;;0.30;0.30;;;;;;;36.01;32.91;101403.53;4923727;29;20036;-88
2023/08/22 10:57:27;;;;;;;0.30;0.30;;;;;;;36.11;33.24;101393.06;4914446;29;20065;-87
2023/08/22 10:59:59;;;;;;;0.20;0.20;;;;;;;36.36;32.37;101407.25;4931721;28;20023;-86
2023/08/22 11:02:33;;;;;;;0.30;0.30;;;;;;;36.54;32.84;101398.34;4972009;28;20089;-87
2023/08/22 11:05:00;;;;;;;0.30;0.30;;;;;;;36.72;31.93;101395.59;4909362;29;20083;-91
2023/08/22 11:07:26;;;;;;;0.30;0.30;;;;;;;36.81;31.91;101392.56;4918000;29;20035;-88
2023/08/22 11:09:51;;;;;;;0.30;0.30;;;;;;;37.04;31.59;101396.16;4947501;29;20453;-84
2023/08/22 11:12:21;;;;;;;0.30;0.30;;;;;;;36.87;31.64;101394.34;4910223;29;20100;-88
2023/08/22 11:14:47;;;;;;;0.30;0.30;;;;;;;37.00;31.05;101384.22;4930727;29;20488;-87
2023/08/22 11:17:14;;;;;;;0.30;0.30;;;;;;;36.58;31.51;101361.81;4935858;29;20086;-84
2023/08/22 11:19:39;;;;;;;0.40;0.40;;;;;;;37.02;31.37;101378.56;4925165;29;20505;-85
2023/08/22 11:22:06;;;;;;;0.30;0.30;;;;;;;36.99;30.71;101387.13;4934283;29;20115;-87
2023/08/22 11:24:31;;;;;;;0.30;0.30;;;;;;;37.29;30.41;101387.91;4935320;29;20058;-85
2023/08/22 11:26:57;;;;;;;0.35;0.35;;;;;;;37.31;30.46;101385.78;4936075;28;20070;-88
2023/08/22 11:29:22;;;;;;;0.30;0.30;;;;;;;37.30;30.93;101381.47;4922578;29;20059;-89